sensor_id;sensor_type;location;lat;lon;timestamp;temperature;humidity
59162;DHT22;44942;48.936;8.260;2023-08-12T00:01:08;26.90;56.90
59162;DHT22;44942;48.936;8.260;2023-08-12T00:06:08;26.90;57.00
59162;DHT22;44942;48.936;8.260;2023-08-12T00:11:10;26.90;57.10
59162;DHT22;44942;48.936;8.260;2023-08-12T00:16:10;26.80;57.20
59162;DHT22;44942;48.936;8.260;2023-08-12T00:21:11;26.90;57.60
59162;DHT22;44942;48.936;8.260;2023-08-12T00:26:12;26.80;57.60
59162;DHT22;44942;48.936;8.260;2023-08-12T00:31:12;26.80;57.60
59162;DHT22;44942;48.936;8.260;2023-08-12T00:36:13;26.80;57.90
59162;DHT22;44942;48.936;8.260;2023-08-12T00:41:13;26.80;58.00
59162;DHT22;44942;48.936;8.260;2023-08-12T00:46:14;26.80;58.20
59162;DHT22;44942;48.936;8.260;2023-08-12T00:51:18;26.80;58.30
59162;DHT22;44942;48.936;8.260;2023-08-12T00:56:18;26.70;58.20
59162;DHT22;44942;48.936;8.260;2023-08-12T01:01:19;26.70;58.10
59162;DHT22;44942;48.936;8.260;2023-08-12T01:06:20;26.70;58.10
59162;DHT22;44942;48.936;8.260;2023-08-12T01:16:35;26.70;58.40
59162;DHT22;44942;48.936;8.260;2023-08-12T01:21:41;26.70;58.40
59162;DHT22;44942;48.936;8.260;2023-08-12T01:26:44;26.60;58.60
59162;DHT22;44942;48.936;8.260;2023-08-12T01:31:48;26.60;58.50
59162;DHT22;44942;48.936;8.260;2023-08-12T01:36:55;26.60;58.50
59162;DHT22;44942;48.936;8.260;2023-08-12T01:41:56;26.60;58.50
59162;DHT22;44942;48.936;8.260;2023-08-12T01:46:56;26.60;58.60
59162;DHT22;44942;48.936;8.260;2023-08-12T01:51:57;26.60;58.50
59162;DHT22;44942;48.936;8.260;2023-08-12T01:56:58;26.50;58.30
59162;DHT22;44942;48.936;8.260;2023-08-12T02:01:58;26.50;58.20
59162;DHT22;44942;48.936;8.260;2023-08-12T02:06:59;26.50;58.10
59162;DHT22;44942;48.936;8.260;2023-08-12T02:11:59;26.50;57.90
59162;DHT22;44942;48.936;8.260;2023-08-12T02:17:00;26.50;57.90
59162;DHT22;44942;48.936;8.260;2023-08-12T02:22:01;26.50;57.90
59162;DHT22;44942;48.936;8.260;2023-08-12T02:27:04;26.50;57.90
59162;DHT22;44942;48.936;8.260;2023-08-12T02:32:04;26.50;58.10
59162;DHT22;44942;48.936;8.260;2023-08-12T02:37:05;26.50;58.10
59162;DHT22;44942;48.936;8.260;2023-08-12T02:42:05;26.40;58.10
59162;DHT22;44942;48.936;8.260;2023-08-12T02:47:06;26.50;58.20
59162;DHT22;44942;48.936;8.260;2023-08-12T02:52:06;26.50;58.20
59162;DHT22;44942;48.936;8.260;2023-08-12T02:57:07;26.40;58.20
59162;DHT22;44942;48.936;8.260;2023-08-12T03:02:08;26.40;58.30
59162;DHT22;44942;48.936;8.260;2023-08-12T03:07:08;26.40;58.30
59162;DHT22;44942;48.936;8.260;2023-08-12T03:12:09;26.50;58.30
59162;DHT22;44942;48.936;8.260;2023-08-12T03:17:09;26.40;58.30
59162;DHT22;44942;48.936;8.260;2023-08-12T03:22:10;26.40;58.10
59162;DHT22;44942;48.936;8.260;2023-08-12T03:27:11;26.40;58.10
59162;DHT22;44942;48.936;8.260;2023-08-12T03:32:11;26.40;58.00
59162;DHT22;44942;48.936;8.260;2023-08-12T03:37:12;26.40;58.00
59162;DHT22;44942;48.936;8.260;2023-08-12T03:42:12;26.40;57.90
59162;DHT22;44942;48.936;8.260;2023-08-12T03:47:14;26.40;57.80
59162;DHT22;44942;48.936;8.260;2023-08-12T03:52:15;26.40;57.80
59162;DHT22;44942;48.936;8.260;2023-08-12T03:57:16;26.40;57.80
59162;DHT22;44942;48.936;8.260;2023-08-12T04:02:16;26.40;57.80
59162;DHT22;44942;48.936;8.260;2023-08-12T04:07:17;26.40;57.70
59162;DHT22;44942;48.936;8.260;2023-08-12T04:12:17;26.40;57.70
59162;DHT22;44942;48.936;8.260;2023-08-12T04:17:18;26.40;57.80
59162;DHT22;44942;48.936;8.260;2023-08-12T04:22:18;26.40;57.70
59162;DHT22;44942;48.936;8.260;2023-08-12T04:27:19;26.40;57.80
59162;DHT22;44942;48.936;8.260;2023-08-12T04:32:19;26.40;57.80
59162;DHT22;44942;48.936;8.260;2023-08-12T04:37:20;26.40;57.90
59162;DHT22;44942;48.936;8.260;2023-08-12T04:42:20;26.40;57.90
59162;DHT22;44942;48.936;8.260;2023-08-12T04:47:21;26.40;58.00
59162;DHT22;44942;48.936;8.260;2023-08-12T04:52:22;26.30;57.90
59162;DHT22;44942;48.936;8.260;2023-08-12T04:57:22;26.30;58.00
59162;DHT22;44942;48.936;8.260;2023-08-12T05:02:23;26.30;58.20
59162;DHT22;44942;48.936;8.260;2023-08-12T05:07:23;26.40;58.30
59162;DHT22;44942;48.936;8.260;2023-08-12T05:12:24;26.40;59.20
59162;DHT22;44942;48.936;8.260;2023-08-12T05:17:24;26.30;58.50
59162;DHT22;44942;48.936;8.260;2023-08-12T05:22:25;26.30;58.60
59162;DHT22;44942;48.936;8.260;2023-08-12T05:27:26;26.30;58.70
59162;DHT22;44942;48.936;8.260;2023-08-12T05:32:26;26.30;59.00
59162;DHT22;44942;48.936;8.260;2023-08-12T05:37:27;26.30;59.10
59162;DHT22;44942;48.936;8.260;2023-08-12T05:42:27;26.30;59.00
59162;DHT22;44942;48.936;8.260;2023-08-12T05:47:28;26.30;59.00
59162;DHT22;44942;48.936;8.260;2023-08-12T05:52:28;26.30;59.10
59162;DHT22;44942;48.936;8.260;2023-08-12T05:57:29;26.30;59.30
59162;DHT22;44942;48.936;8.260;2023-08-12T06:02:29;26.30;59.40
59162;DHT22;44942;48.936;8.260;2023-08-12T06:07:30;26.30;59.50
59162;DHT22;44942;48.936;8.260;2023-08-12T06:12:31;26.30;59.40
59162;DHT22;44942;48.936;8.260;2023-08-12T06:17:31;26.30;59.50
59162;DHT22;44942;48.936;8.260;2023-08-12T06:22:32;26.30;59.50
59162;DHT22;44942;48.936;8.260;2023-08-12T06:27:32;26.30;59.70
59162;DHT22;44942;48.936;8.260;2023-08-12T06:32:36;26.30;59.70
59162;DHT22;44942;48.936;8.260;2023-08-12T06:37:37;26.40;59.80
59162;DHT22;44942;48.936;8.260;2023-08-12T06:42:37;26.30;59.80
59162;DHT22;44942;48.936;8.260;2023-08-12T06:47:38;26.40;59.90
59162;DHT22;44942;48.936;8.260;2023-08-12T06:52:38;26.40;60.00
59162;DHT22;44942;48.936;8.260;2023-08-12T06:57:39;26.40;60.20
59162;DHT22;44942;48.936;8.260;2023-08-12T07:02:39;26.40;60.20
59162;DHT22;44942;48.936;8.260;2023-08-12T07:07:42;26.40;60.20
59162;DHT22;44942;48.936;8.260;2023-08-12T07:12:43;26.50;60.30
59162;DHT22;44942;48.936;8.260;2023-08-12T07:17:43;26.50;60.40
59162;DHT22;44942;48.936;8.260;2023-08-12T07:22:44;26.50;60.20
59162;DHT22;44942;48.936;8.260;2023-08-12T07:27:45;26.50;60.10
59162;DHT22;44942;48.936;8.260;2023-08-12T07:32:45;26.50;60.30
59162;DHT22;44942;48.936;8.260;2023-08-12T07:37:46;26.50;60.30
59162;DHT22;44942;48.936;8.260;2023-08-12T07:42:46;26.60;60.30
59162;DHT22;44942;48.936;8.260;2023-08-12T07:47:49;26.60;60.40
59162;DHT22;44942;48.936;8.260;2023-08-12T07:52:50;26.60;60.60
59162;DHT22;44942;48.936;8.260;2023-08-12T07:57:52;26.70;60.70
59162;DHT22;44942;48.936;8.260;2023-08-12T08:02:52;26.70;61.70
59162;DHT22;44942;48.936;8.260;2023-08-12T08:07:53;26.70;60.70
59162;DHT22;44942;48.936;8.260;2023-08-12T08:12:53;26.70;60.30
59162;DHT22;44942;48.936;8.260;2023-08-12T08:17:54;26.70;60.30
59162;DHT22;44942;48.936;8.260;2023-08-12T08:22:54;26.70;60.20
59162;DHT22;44942;48.936;8.260;2023-08-12T08:27:55;26.70;60.10
59162;DHT22;44942;48.936;8.260;2023-08-12T08:32:56;26.80;60.20
59162;DHT22;44942;48.936;8.260;2023-08-12T08:37:56;26.80;60.10
59162;DHT22;44942;48.936;8.260;2023-08-12T08:43:01;26.80;60.20
59162;DHT22;44942;48.936;8.260;2023-08-12T08:48:05;26.80;60.80
59162;DHT22;44942;48.936;8.260;2023-08-12T08:53:07;26.90;61.10
59162;DHT22;44942;48.936;8.260;2023-08-12T08:58:08;26.90;61.30
59162;DHT22;44942;48.936;8.260;2023-08-12T09:03:08;26.90;61.40
59162;DHT22;44942;48.936;8.260;2023-08-12T09:08:10;26.90;61.30
59162;DHT22;44942;48.936;8.260;2023-08-12T09:13:13;27.00;61.10
59162;DHT22;44942;48.936;8.260;2023-08-12T09:18:16;27.00;61.10
59162;DHT22;44942;48.936;8.260;2023-08-12T09:23:17;27.00;61.10
59162;DHT22;44942;48.936;8.260;2023-08-12T09:28:18;27.00;60.90
59162;DHT22;44942;48.936;8.260;2023-08-12T09:33:26;27.10;60.80
59162;DHT22;44942;48.936;8.260;2023-08-12T09:38:26;27.10;60.80
59162;DHT22;44942;48.936;8.260;2023-08-12T09:43:27;27.10;60.60
59162;DHT22;44942;48.936;8.260;2023-08-12T09:48:28;27.10;60.50
59162;DHT22;44942;48.936;8.260;2023-08-12T09:53:29;27.10;60.40
59162;DHT22;44942;48.936;8.260;2023-08-12T09:58:30;27.10;60.50
59162;DHT22;44942;48.936;8.260;2023-08-12T10:03:34;27.20;60.50
59162;DHT22;44942;48.936;8.260;2023-08-12T10:08:35;27.20;60.60
59162;DHT22;44942;48.936;8.260;2023-08-12T10:13:36;27.20;60.60
59162;DHT22;44942;48.936;8.260;2023-08-12T10:18:38;27.20;60.40
59162;DHT22;44942;48.936;8.260;2023-08-12T10:23:41;27.20;60.30
59162;DHT22;44942;48.936;8.260;2023-08-12T10:28:42;27.20;60.40
59162;DHT22;44942;48.936;8.260;2023-08-12T10:33:43;27.20;61.20
59162;DHT22;44942;48.936;8.260;2023-08-12T10:38:44;27.20;60.20
59162;DHT22;44942;48.936;8.260;2023-08-12T10:43:54;27.30;60.10
59162;DHT22;44942;48.936;8.260;2023-08-12T10:54:14;27.30;60.10
59162;DHT22;44942;48.936;8.260;2023-08-12T11:05:03;27.30;60.90
59162;DHT22;44942;48.936;8.260;2023-08-12T11:10:19;27.30;60.10
59162;DHT22;44942;48.936;8.260;2023-08-12T11:15:35;27.30;59.90
59162;DHT22;44942;48.936;8.260;2023-08-12T11:20:38;27.30;59.90
59162;DHT22;44942;48.936;8.260;2023-08-12T11:25:40;27.30;59.90
59162;DHT22;44942;48.936;8.260;2023-08-12T11:30:41;27.30;60.00
59162;DHT22;44942;48.936;8.260;2023-08-12T11:35:43;27.30;60.60
59162;DHT22;44942;48.936;8.260;2023-08-12T11:40:44;27.30;61.10
59162;DHT22;44942;48.936;8.260;2023-08-12T11:45:44;27.40;61.40
59162;DHT22;44942;48.936;8.260;2023-08-12T11:50:45;27.40;61.40
59162;DHT22;44942;48.936;8.260;2023-08-12T11:55:46;27.40;61.70
59162;DHT22;44942;48.936;8.260;2023-08-12T12:00:46;27.40;62.00
59162;DHT22;44942;48.936;8.260;2023-08-12T12:05:47;27.40;62.10
59162;DHT22;44942;48.936;8.260;2023-08-12T12:10:48;27.50;62.40
59162;DHT22;44942;48.936;8.260;2023-08-12T12:15:49;27.50;62.80
59162;DHT22;44942;48.936;8.260;2023-08-12T12:20:57;27.50;62.90
59162;DHT22;44942;48.936;8.260;2023-08-12T12:26:02;27.50;62.70
59162;DHT22;44942;48.936;8.260;2023-08-12T12:31:03;27.60;62.90
59162;DHT22;44942;48.936;8.260;2023-08-12T12:36:04;27.60;62.80
59162;DHT22;44942;48.936;8.260;2023-08-12T12:41:04;27.60;62.60
59162;DHT22;44942;48.936;8.260;2023-08-12T12:46:05;27.60;62.40
59162;DHT22;44942;48.936;8.260;2023-08-12T12:51:05;27.60;62.60
59162;DHT22;44942;48.936;8.260;2023-08-12T12:56:06;27.60;62.10
59162;DHT22;44942;48.936;8.260;2023-08-12T13:01:06;27.70;62.20
59162;DHT22;44942;48.936;8.260;2023-08-12T13:06:07;27.70;62.10
59162;DHT22;44942;48.936;8.260;2023-08-12T13:11:07;27.70;62.20
59162;DHT22;44942;48.936;8.260;2023-08-12T13:16:08;27.70;62.10
59162;DHT22;44942;48.936;8.260;2023-08-12T13:21:08;27.70;62.10
59162;DHT22;44942;48.936;8.260;2023-08-12T13:26:09;27.80;62.00
59162;DHT22;44942;48.936;8.260;2023-08-12T13:31:10;27.80;62.00
59162;DHT22;44942;48.936;8.260;2023-08-12T13:36:11;27.80;61.90
59162;DHT22;44942;48.936;8.260;2023-08-12T13:41:12;27.80;62.00
59162;DHT22;44942;48.936;8.260;2023-08-12T13:46:12;27.90;61.90
59162;DHT22;44942;48.936;8.260;2023-08-12T13:51:13;27.90;61.90
59162;DHT22;44942;48.936;8.260;2023-08-12T13:56:13;27.90;62.00
59162;DHT22;44942;48.936;8.260;2023-08-12T14:01:14;27.90;62.20
59162;DHT22;44942;48.936;8.260;2023-08-12T14:06:15;28.00;62.20
59162;DHT22;44942;48.936;8.260;2023-08-12T14:11:15;28.00;62.20
59162;DHT22;44942;48.936;8.260;2023-08-12T14:16:16;28.00;62.10
59162;DHT22;44942;48.936;8.260;2023-08-12T14:21:16;28.00;62.20
59162;DHT22;44942;48.936;8.260;2023-08-12T14:26:17;28.10;62.10
59162;DHT22;44942;48.936;8.260;2023-08-12T14:31:17;28.10;62.10
59162;DHT22;44942;48.936;8.260;2023-08-12T14:36:18;28.10;63.00
59162;DHT22;44942;48.936;8.260;2023-08-12T14:41:19;28.10;62.20
59162;DHT22;44942;48.936;8.260;2023-08-12T14:46:19;28.10;62.20
59162;DHT22;44942;48.936;8.260;2023-08-12T14:51:20;28.10;62.10
59162;DHT22;44942;48.936;8.260;2023-08-12T14:56:20;28.10;62.90
59162;DHT22;44942;48.936;8.260;2023-08-12T15:01:21;28.00;61.90
59162;DHT22;44942;48.936;8.260;2023-08-12T15:06:22;28.00;62.20
59162;DHT22;44942;48.936;8.260;2023-08-12T15:11:22;28.00;62.70
59162;DHT22;44942;48.936;8.260;2023-08-12T15:16:24;28.00;62.80
59162;DHT22;44942;48.936;8.260;2023-08-12T15:21:27;28.00;62.90
59162;DHT22;44942;48.936;8.260;2023-08-12T15:26:27;28.00;63.20
59162;DHT22;44942;48.936;8.260;2023-08-12T15:31:28;28.00;63.20
59162;DHT22;44942;48.936;8.260;2023-08-12T15:36:29;27.90;63.20
59162;DHT22;44942;48.936;8.260;2023-08-12T15:41:31;27.90;63.70
59162;DHT22;44942;48.936;8.260;2023-08-12T15:46:32;27.90;64.00
59162;DHT22;44942;48.936;8.260;2023-08-12T15:51:33;27.90;64.00
59162;DHT22;44942;48.936;8.260;2023-08-12T15:56:34;27.90;64.30
59162;DHT22;44942;48.936;8.260;2023-08-12T16:01:36;27.90;64.60
59162;DHT22;44942;48.936;8.260;2023-08-12T16:06:37;27.90;64.90
59162;DHT22;44942;48.936;8.260;2023-08-12T16:11:37;27.90;64.80
59162;DHT22;44942;48.936;8.260;2023-08-12T16:16:38;27.90;64.40
59162;DHT22;44942;48.936;8.260;2023-08-12T16:21:39;27.90;64.80
59162;DHT22;44942;48.936;8.260;2023-08-12T16:26:39;27.80;65.30
59162;DHT22;44942;48.936;8.260;2023-08-12T16:31:40;27.80;65.70
59162;DHT22;44942;48.936;8.260;2023-08-12T16:36:40;27.70;65.60
59162;DHT22;44942;48.936;8.260;2023-08-12T16:41:41;27.70;65.70
59162;DHT22;44942;48.936;8.260;2023-08-12T16:46:42;27.60;65.90
59162;DHT22;44942;48.936;8.260;2023-08-12T16:51:42;27.60;66.20
59162;DHT22;44942;48.936;8.260;2023-08-12T16:56:43;27.60;66.40
59162;DHT22;44942;48.936;8.260;2023-08-12T17:01:43;27.60;66.50
59162;DHT22;44942;48.936;8.260;2023-08-12T17:06:46;27.70;66.20
59162;DHT22;44942;48.936;8.260;2023-08-12T17:11:47;27.70;65.80
59162;DHT22;44942;48.936;8.260;2023-08-12T17:16:47;27.80;65.50
59162;DHT22;44942;48.936;8.260;2023-08-12T17:21:48;27.80;65.20
59162;DHT22;44942;48.936;8.260;2023-08-12T17:26:48;27.80;65.00
59162;DHT22;44942;48.936;8.260;2023-08-12T17:31:49;27.80;64.70
59162;DHT22;44942;48.936;8.260;2023-08-12T17:36:49;27.90;64.70
59162;DHT22;44942;48.936;8.260;2023-08-12T17:41:50;27.90;64.50
59162;DHT22;44942;48.936;8.260;2023-08-12T17:46:51;27.90;64.50
59162;DHT22;44942;48.936;8.260;2023-08-12T17:51:51;27.90;64.30
59162;DHT22;44942;48.936;8.260;2023-08-12T17:56:52;27.90;64.20
59162;DHT22;44942;48.936;8.260;2023-08-12T18:01:52;27.90;64.10
59162;DHT22;44942;48.936;8.260;2023-08-12T18:06:53;27.90;64.00
59162;DHT22;44942;48.936;8.260;2023-08-12T18:11:53;27.90;64.10
59162;DHT22;44942;48.936;8.260;2023-08-12T18:16:54;27.90;64.20
59162;DHT22;44942;48.936;8.260;2023-08-12T18:21:54;27.90;64.40
59162;DHT22;44942;48.936;8.260;2023-08-12T18:26:55;27.80;64.50
59162;DHT22;44942;48.936;8.260;2023-08-12T18:31:56;27.80;64.60
59162;DHT22;44942;48.936;8.260;2023-08-12T18:36:56;27.80;65.00
59162;DHT22;44942;48.936;8.260;2023-08-12T18:41:57;27.80;65.00
59162;DHT22;44942;48.936;8.260;2023-08-12T18:46:57;27.80;65.00
59162;DHT22;44942;48.936;8.260;2023-08-12T18:51:58;27.80;65.00
59162;DHT22;44942;48.936;8.260;2023-08-12T18:56:58;27.80;64.90
59162;DHT22;44942;48.936;8.260;2023-08-12T19:01:59;27.80;65.00
59162;DHT22;44942;48.936;8.260;2023-08-12T19:06:59;27.80;65.00
59162;DHT22;44942;48.936;8.260;2023-08-12T19:12:00;27.80;65.00
59162;DHT22;44942;48.936;8.260;2023-08-12T19:17:00;27.80;65.00
59162;DHT22;44942;48.936;8.260;2023-08-12T19:22:01;27.70;64.80
59162;DHT22;44942;48.936;8.260;2023-08-12T19:27:02;27.80;64.90
59162;DHT22;44942;48.936;8.260;2023-08-12T19:32:03;27.70;65.10
59162;DHT22;44942;48.936;8.260;2023-08-12T19:37:03;27.70;65.10
59162;DHT22;44942;48.936;8.260;2023-08-12T19:42:04;27.70;65.10
59162;DHT22;44942;48.936;8.260;2023-08-12T19:47:05;27.70;65.10
59162;DHT22;44942;48.936;8.260;2023-08-12T19:52:05;27.70;65.90
59162;DHT22;44942;48.936;8.260;2023-08-12T19:57:06;27.70;65.10
59162;DHT22;44942;48.936;8.260;2023-08-12T20:02:06;27.60;65.10
59162;DHT22;44942;48.936;8.260;2023-08-12T20:07:07;27.70;65.20
59162;DHT22;44942;48.936;8.260;2023-08-12T20:12:07;27.70;64.60
59162;DHT22;44942;48.936;8.260;2023-08-12T20:17:08;27.60;64.40
59162;DHT22;44942;48.936;8.260;2023-08-12T20:22:09;27.60;64.10
59162;DHT22;44942;48.936;8.260;2023-08-12T20:27:09;27.60;64.20
59162;DHT22;44942;48.936;8.260;2023-08-12T20:32:10;27.60;64.20
59162;DHT22;44942;48.936;8.260;2023-08-12T20:37:10;27.50;64.20
59162;DHT22;44942;48.936;8.260;2023-08-12T20:42:11;27.50;64.40
59162;DHT22;44942;48.936;8.260;2023-08-12T20:47:11;27.50;64.50
59162;DHT22;44942;48.936;8.260;2023-08-12T20:52:12;27.50;64.70
59162;DHT22;44942;48.936;8.260;2023-08-12T20:57:14;27.40;64.80
59162;DHT22;44942;48.936;8.260;2023-08-12T21:02:14;27.40;64.90
59162;DHT22;44942;48.936;8.260;2023-08-12T21:07:15;27.40;64.90
59162;DHT22;44942;48.936;8.260;2023-08-12T21:12:15;27.40;65.70
59162;DHT22;44942;48.936;8.260;2023-08-12T21:17:16;27.30;64.90
59162;DHT22;44942;48.936;8.260;2023-08-12T21:22:16;27.30;64.80
59162;DHT22;44942;48.936;8.260;2023-08-12T21:27:17;27.20;64.70
59162;DHT22;44942;48.936;8.260;2023-08-12T21:32:17;27.20;64.80
59162;DHT22;44942;48.936;8.260;2023-08-12T21:37:18;27.20;64.80
59162;DHT22;44942;48.936;8.260;2023-08-12T21:42:18;27.20;64.80
59162;DHT22;44942;48.936;8.260;2023-08-12T21:47:19;27.20;64.70
59162;DHT22;44942;48.936;8.260;2023-08-12T21:52:19;27.20;64.80
59162;DHT22;44942;48.936;8.260;2023-08-12T21:57:20;27.10;64.80
59162;DHT22;44942;48.936;8.260;2023-08-12T22:02:24;27.10;64.80
59162;DHT22;44942;48.936;8.260;2023-08-12T22:07:25;27.10;65.00
59162;DHT22;44942;48.936;8.260;2023-08-12T22:12:26;27.00;64.90
59162;DHT22;44942;48.936;8.260;2023-08-12T22:17:26;27.00;64.80
59162;DHT22;44942;48.936;8.260;2023-08-12T22:22:27;27.00;64.80
59162;DHT22;44942;48.936;8.260;2023-08-12T22:27:27;27.00;64.90
59162;DHT22;44942;48.936;8.260;2023-08-12T22:32:28;27.00;64.80
59162;DHT22;44942;48.936;8.260;2023-08-12T22:37:28;27.00;64.80
59162;DHT22;44942;48.936;8.260;2023-08-12T22:42:29;27.00;64.80
59162;DHT22;44942;48.936;8.260;2023-08-12T22:47:29;26.90;64.50
59162;DHT22;44942;48.936;8.260;2023-08-12T22:52:30;26.80;64.50
59162;DHT22;44942;48.936;8.260;2023-08-12T22:57:30;26.80;64.30
59162;DHT22;44942;48.936;8.260;2023-08-12T23:02:31;26.80;64.30
59162;DHT22;44942;48.936;8.260;2023-08-12T23:07:31;26.80;64.40
59162;DHT22;44942;48.936;8.260;2023-08-12T23:12:32;26.70;64.30
59162;DHT22;44942;48.936;8.260;2023-08-12T23:17:33;26.70;64.30
59162;DHT22;44942;48.936;8.260;2023-08-12T23:22:34;26.70;64.30
59162;DHT22;44942;48.936;8.260;2023-08-12T23:27:34;26.70;64.10
59162;DHT22;44942;48.936;8.260;2023-08-12T23:32:36;26.60;64.00
59162;DHT22;44942;48.936;8.260;2023-08-12T23:37:36;26.60;64.00
59162;DHT22;44942;48.936;8.260;2023-08-12T23:42:37;26.60;64.20
59162;DHT22;44942;48.936;8.260;2023-08-12T23:47:38;26.60;64.30
59162;DHT22;44942;48.936;8.260;2023-08-12T23:52:39;26.60;64.20
59162;DHT22;44942;48.936;8.260;2023-08-12T23:57:40;26.60;64.10
